sensor_id;sensor_type;location;lat;lon;timestamp;pressure;altitude;pressure_sealevel;temperature;humidity
24788;BME280;12883;52.662;5.196;2022-09-17T00:01:52;101294.09;;;12.88;100.00
24788;BME280;12883;52.662;5.196;2022-09-17T00:04:17;101279.34;;;12.73;100.00
24788;BME280;12883;52.662;5.196;2022-09-17T00:06:43;101267.19;;;12.51;100.00
24788;BME280;12883;52.662;5.196;2022-09-17T00:09:09;101276.19;;;12.50;100.00
24788;BME280;12883;52.662;5.196;2022-09-17T00:11:37;101266.34;;;12.44;100.00
24788;BME280;12883;52.662;5.196;2022-09-17T00:14:05;101273.06;;;12.33;100.00
24788;BME280;12883;52.662;5.196;2022-09-17T00:16:40;101273.66;;;12.29;100.00
24788;BME280;12883;52.662;5.196;2022-09-17T00:19:09;101270.97;;;12.22;100.00
24788;BME280;12883;52.662;5.196;2022-09-17T00:21:34;101277.94;;;12.17;100.00
24788;BME280;12883;52.662;5.196;2022-09-17T00:24:03;101281.19;;;12.19;100.00
24788;BME280;12883;52.662;5.196;2022-09-17T00:26:30;101283.00;;;12.12;100.00
24788;BME280;12883;52.662;5.196;2022-09-17T00:28:56;101283.00;;;12.12;100.00
24788;BME280;12883;52.662;5.196;2022-09-17T00:31:23;101257.59;;;12.03;100.00
24788;BME280;12883;52.662;5.196;2022-09-17T00:33:49;101277.06;;;12.10;100.00
24788;BME280;12883;52.662;5.196;2022-09-17T00:36:15;101278.47;;;12.06;100.00
24788;BME280;12883;52.662;5.196;2022-09-17T00:38:40;101282.41;;;12.10;100.00
24788;BME280;12883;52.662;5.196;2022-09-17T00:41:06;101279.75;;;12.10;100.00
24788;BME280;12883;52.662;5.196;2022-09-17T00:43:38;101269.53;;;12.13;100.00
24788;BME280;12883;52.662;5.196;2022-09-17T00:48:37;101282.59;;;12.15;100.00
24788;BME280;12883;52.662;5.196;2022-09-17T00:51:05;101273.41;;;12.11;100.00
24788;BME280;12883;52.662;5.196;2022-09-17T00:53:33;101278.28;;;12.07;100.00
24788;BME280;12883;52.662;5.196;2022-09-17T00:56:05;101277.47;;;12.07;100.00
24788;BME280;12883;52.662;5.196;2022-09-17T00:58:34;101271.69;;;11.97;100.00
24788;BME280;12883;52.662;5.196;2022-09-17T01:01:00;101274.09;;;11.92;100.00
24788;BME280;12883;52.662;5.196;2022-09-17T01:03:26;101285.59;;;11.99;100.00
24788;BME280;12883;52.662;5.196;2022-09-17T01:06:15;101269.81;;;11.91;100.00
24788;BME280;12883;52.662;5.196;2022-09-17T01:11:58;101287.00;;;11.95;100.00
24788;BME280;12883;52.662;5.196;2022-09-17T01:14:32;101293.34;;;11.94;100.00
24788;BME280;12883;52.662;5.196;2022-09-17T01:25:40;101277.44;;;12.00;100.00
24788;BME280;12883;52.662;5.196;2022-09-17T01:28:27;101275.56;;;12.01;100.00
24788;BME280;12883;52.662;5.196;2022-09-17T01:31:50;101281.50;;;11.96;100.00
24788;BME280;12883;52.662;5.196;2022-09-17T01:34:36;101281.50;;;11.96;100.00
24788;BME280;12883;52.662;5.196;2022-09-17T01:37:12;101292.91;;;11.90;100.00
24788;BME280;12883;52.662;5.196;2022-09-17T01:39:52;101289.03;;;11.93;100.00
24788;BME280;12883;52.662;5.196;2022-09-17T01:42:26;101303.72;;;11.89;100.00
24788;BME280;12883;52.662;5.196;2022-09-17T01:45:03;101286.31;;;11.80;100.00
24788;BME280;12883;52.662;5.196;2022-09-17T01:47:35;101292.56;;;12.00;100.00
24788;BME280;12883;52.662;5.196;2022-09-17T01:50:16;101295.06;;;12.08;100.00
24788;BME280;12883;52.662;5.196;2022-09-17T01:52:44;101294.63;;;12.04;100.00
24788;BME280;12883;52.662;5.196;2022-09-17T01:55:14;101290.50;;;12.02;100.00
24788;BME280;12883;52.662;5.196;2022-09-17T02:00:17;101299.13;;;12.04;100.00
24788;BME280;12883;52.662;5.196;2022-09-17T02:08:02;101276.06;;;11.77;100.00
24788;BME280;12883;52.662;5.196;2022-09-17T02:10:33;101307.22;;;11.89;100.00
24788;BME280;12883;52.662;5.196;2022-09-17T02:13:06;101306.78;;;11.86;100.00
24788;BME280;12883;52.662;5.196;2022-09-17T02:15:37;101298.56;;;11.81;100.00
24788;BME280;12883;52.662;5.196;2022-09-17T02:18:14;101297.34;;;11.77;100.00
24788;BME280;12883;52.662;5.196;2022-09-17T02:20:47;101305.94;;;11.79;100.00
24788;BME280;12883;52.662;5.196;2022-09-17T02:23:18;101318.22;;;11.80;100.00
24788;BME280;12883;52.662;5.196;2022-09-17T02:26:04;101317.16;;;11.74;100.00
24788;BME280;12883;52.662;5.196;2022-09-17T02:28:41;101314.06;;;11.71;100.00
24788;BME280;12883;52.662;5.196;2022-09-17T02:31:08;101331.22;;;11.68;100.00
24788;BME280;12883;52.662;5.196;2022-09-17T02:33:35;101303.94;;;11.60;100.00
24788;BME280;12883;52.662;5.196;2022-09-17T02:36:02;101312.47;;;11.55;100.00
24788;BME280;12883;52.662;5.196;2022-09-17T02:38:29;101316.47;;;11.66;100.00
24788;BME280;12883;52.662;5.196;2022-09-17T02:41:14;101318.88;;;11.61;100.00
24788;BME280;12883;52.662;5.196;2022-09-17T02:49:39;101329.84;;;11.51;100.00
24788;BME280;12883;52.662;5.196;2022-09-17T02:52:21;101332.56;;;11.58;100.00
24788;BME280;12883;52.662;5.196;2022-09-17T03:00:15;101323.81;;;11.64;100.00
24788;BME280;12883;52.662;5.196;2022-09-17T03:02:48;101323.88;;;11.70;100.00
24788;BME280;12883;52.662;5.196;2022-09-17T03:05:17;101323.44;;;11.67;100.00
24788;BME280;12883;52.662;5.196;2022-09-17T03:07:43;101326.53;;;11.70;100.00
24788;BME280;12883;52.662;5.196;2022-09-17T03:10:09;101335.34;;;11.71;100.00
24788;BME280;12883;52.662;5.196;2022-09-17T03:12:35;101326.09;;;11.67;100.00
24788;BME280;12883;52.662;5.196;2022-09-17T03:15:01;101330.97;;;11.63;100.00
24788;BME280;12883;52.662;5.196;2022-09-17T03:17:26;101340.16;;;11.61;100.00
24788;BME280;12883;52.662;5.196;2022-09-17T03:19:52;101332.38;;;11.59;100.00
24788;BME280;12883;52.662;5.196;2022-09-17T03:22:17;101338.88;;;11.57;100.00
24788;BME280;12883;52.662;5.196;2022-09-17T03:24:43;101342.91;;;11.53;100.00
24788;BME280;12883;52.662;5.196;2022-09-17T03:27:08;101332.09;;;11.54;100.00
24788;BME280;12883;52.662;5.196;2022-09-17T03:29:33;101337.59;;;11.53;100.00
24788;BME280;12883;52.662;5.196;2022-09-17T03:31:59;101338.38;;;11.47;100.00
24788;BME280;12883;52.662;5.196;2022-09-17T03:34:25;101360.72;;;11.52;100.00
24788;BME280;12883;52.662;5.196;2022-09-17T03:36:50;101356.84;;;11.55;100.00
24788;BME280;12883;52.662;5.196;2022-09-17T03:39:16;101331.81;;;11.43;100.00
24788;BME280;12883;52.662;5.196;2022-09-17T03:41:41;101341.69;;;11.49;100.00
24788;BME280;12883;52.662;5.196;2022-09-17T03:44:06;101328.75;;;11.46;100.00
24788;BME280;12883;52.662;5.196;2022-09-17T03:46:32;101326.50;;;11.43;100.00
24788;BME280;12883;52.662;5.196;2022-09-17T03:48:57;101329.28;;;11.35;100.00
24788;BME280;12883;52.662;5.196;2022-09-17T03:51:23;101323.09;;;11.28;100.00
24788;BME280;12883;52.662;5.196;2022-09-17T03:53:48;101320.59;;;11.20;100.00
24788;BME280;12883;52.662;5.196;2022-09-17T03:56:13;101319.31;;;11.16;100.00
24788;BME280;12883;52.662;5.196;2022-09-17T03:58:39;101323.72;;;11.09;100.00
24788;BME280;12883;52.662;5.196;2022-09-17T04:01:04;101310.63;;;11.07;100.00
24788;BME280;12883;52.662;5.196;2022-09-17T04:03:30;101297.44;;;10.93;100.00
24788;BME280;12883;52.662;5.196;2022-09-17T04:05:56;101314.44;;;10.98;100.00
24788;BME280;12883;52.662;5.196;2022-09-17T04:08:21;101315.81;;;10.94;100.00
24788;BME280;12883;52.662;5.196;2022-09-17T04:10:47;101318.22;;;10.89;100.00
24788;BME280;12883;52.662;5.196;2022-09-17T04:13:14;101305.50;;;10.85;100.00
24788;BME280;12883;52.662;5.196;2022-09-17T04:15:40;101314.44;;;10.77;100.00
24788;BME280;12883;52.662;5.196;2022-09-17T04:18:06;101319.09;;;10.75;100.00
24788;BME280;12883;52.662;5.196;2022-09-17T04:20:32;101325.09;;;10.84;100.00
24788;BME280;12883;52.662;5.196;2022-09-17T04:22:57;101328.78;;;10.83;100.00
24788;BME280;12883;52.662;5.196;2022-09-17T04:25:22;101331.81;;;10.80;100.00
24788;BME280;12883;52.662;5.196;2022-09-17T04:27:48;101330.41;;;10.84;100.00
24788;BME280;12883;52.662;5.196;2022-09-17T04:30:13;101331.88;;;10.86;100.00
24788;BME280;12883;52.662;5.196;2022-09-17T04:32:39;101332.59;;;10.95;100.00
24788;BME280;12883;52.662;5.196;2022-09-17T04:35:05;101335.84;;;10.97;100.00
24788;BME280;12883;52.662;5.196;2022-09-17T04:37:31;101355.03;;;11.13;100.00
24788;BME280;12883;52.662;5.196;2022-09-17T04:39:56;101359.97;;;11.16;100.00
24788;BME280;12883;52.662;5.196;2022-09-17T04:42:22;101362.69;;;11.23;100.00
24788;BME280;12883;52.662;5.196;2022-09-17T04:44:47;101344.72;;;11.25;100.00
24788;BME280;12883;52.662;5.196;2022-09-17T04:47:13;101345.13;;;11.22;100.00
24788;BME280;12883;52.662;5.196;2022-09-17T04:49:38;101354.09;;;11.21;100.00
24788;BME280;12883;52.662;5.196;2022-09-17T04:52:03;101356.75;;;11.21;100.00
24788;BME280;12883;52.662;5.196;2022-09-17T04:54:29;101362.69;;;11.23;100.00
24788;BME280;12883;52.662;5.196;2022-09-17T04:56:54;101351.19;;;11.16;100.00
24788;BME280;12883;52.662;5.196;2022-09-17T04:59:19;101342.19;;;11.17;100.00
24788;BME280;12883;52.662;5.196;2022-09-17T05:01:45;101350.25;;;11.23;100.00
24788;BME280;12883;52.662;5.196;2022-09-17T05:04:10;101362.38;;;11.32;100.00
24788;BME280;12883;52.662;5.196;2022-09-17T05:06:36;101357.44;;;11.29;100.00
24788;BME280;12883;52.662;5.196;2022-09-17T05:09:01;101369.28;;;11.27;100.00
24788;BME280;12883;52.662;5.196;2022-09-17T05:11:27;101369.28;;;11.27;100.00
24788;BME280;12883;52.662;5.196;2022-09-17T05:13:53;101356.94;;;11.19;100.00
24788;BME280;12883;52.662;5.196;2022-09-17T05:16:18;101367.16;;;11.22;100.00
24788;BME280;12883;52.662;5.196;2022-09-17T05:18:44;101367.94;;;11.16;100.00
24788;BME280;12883;52.662;5.196;2022-09-17T05:21:09;101362.19;;;11.13;100.00
24788;BME280;12883;52.662;5.196;2022-09-17T05:23:35;101364.19;;;11.11;100.00
24788;BME280;12883;52.662;5.196;2022-09-17T05:26:00;101363.38;;;11.10;100.00
24788;BME280;12883;52.662;5.196;2022-09-17T05:28:26;101351.78;;;10.97;100.00
24788;BME280;12883;52.662;5.196;2022-09-17T05:30:52;101358.00;;;11.04;100.00
24788;BME280;12883;52.662;5.196;2022-09-17T05:33:17;101365.69;;;10.99;100.00
24788;BME280;12883;52.662;5.196;2022-09-17T05:35:43;101349.25;;;10.89;100.00
24788;BME280;12883;52.662;5.196;2022-09-17T05:38:09;101361.22;;;10.99;100.00
24788;BME280;12883;52.662;5.196;2022-09-17T05:40:35;101331.88;;;10.86;100.00
24788;BME280;12883;52.662;5.196;2022-09-17T05:43:04;101357.19;;;11.03;100.00
24788;BME280;12883;52.662;5.196;2022-09-17T05:45:32;101354.53;;;11.03;100.00
24788;BME280;12883;52.662;5.196;2022-09-17T05:47:59;101356.34;;;11.03;100.00
24788;BME280;12883;52.662;5.196;2022-09-17T05:50:25;101370.66;;;11.02;100.00
24788;BME280;12883;52.662;5.196;2022-09-17T05:52:51;101372.28;;;11.03;100.00
24788;BME280;12883;52.662;5.196;2022-09-17T05:55:20;101371.91;;;11.06;100.00
24788;BME280;12883;52.662;5.196;2022-09-17T05:57:47;101313.09;;;10.52;100.00
24788;BME280;12883;52.662;5.196;2022-09-17T06:00:12;101369.44;;;11.04;100.00
24788;BME280;12883;52.662;5.196;2022-09-17T06:02:38;101378.34;;;10.97;100.00
24788;BME280;12883;52.662;5.196;2022-09-17T06:05:04;101341.41;;;10.81;100.00
24788;BME280;12883;52.662;5.196;2022-09-17T06:07:29;101370.81;;;11.00;100.00
24788;BME280;12883;52.662;5.196;2022-09-17T06:09:55;101375.78;;;11.03;100.00
24788;BME280;12883;52.662;5.196;2022-09-17T06:12:21;101366.09;;;10.96;100.00
24788;BME280;12883;52.662;5.196;2022-09-17T06:14:46;101384.53;;;11.04;100.00
24788;BME280;12883;52.662;5.196;2022-09-17T06:17:12;101346.53;;;10.82;100.00
24788;BME280;12883;52.662;5.196;2022-09-17T06:19:38;101385.56;;;11.03;100.00
24788;BME280;12883;52.662;5.196;2022-09-17T06:22:03;101386.56;;;11.02;100.00
24788;BME280;12883;52.662;5.196;2022-09-17T06:24:30;101381.44;;;11.00;100.00
24788;BME280;12883;52.662;5.196;2022-09-17T06:26:55;101390.69;;;11.04;100.00
24788;BME280;12883;52.662;5.196;2022-09-17T06:29:21;101398.28;;;11.07;100.00
24788;BME280;12883;52.662;5.196;2022-09-17T06:31:49;101388.84;;;11.05;100.00
24788;BME280;12883;52.662;5.196;2022-09-17T06:34:16;101365.47;;;10.94;100.00
24788;BME280;12883;52.662;5.196;2022-09-17T06:36:42;101390.19;;;11.15;100.00
24788;BME280;12883;52.662;5.196;2022-09-17T06:39:07;101390.28;;;11.22;100.00
24788;BME280;12883;52.662;5.196;2022-09-17T06:41:33;101389.97;;;11.31;100.00
24788;BME280;12883;52.662;5.196;2022-09-17T06:43:59;101387.78;;;11.41;100.00
24788;BME280;12883;52.662;5.196;2022-09-17T06:46:25;101389.88;;;11.46;100.00
24788;BME280;12883;52.662;5.196;2022-09-17T06:48:51;101391.03;;;11.58;100.00
24788;BME280;12883;52.662;5.196;2022-09-17T06:51:16;101409.00;;;11.77;100.00
24788;BME280;12883;52.662;5.196;2022-09-17T06:53:42;101410.34;;;11.94;100.00
24788;BME280;12883;52.662;5.196;2022-09-17T06:56:08;101402.09;;;12.10;100.00
24788;BME280;12883;52.662;5.196;2022-09-17T06:58:35;101401.19;;;12.24;100.00
24788;BME280;12883;52.662;5.196;2022-09-17T07:01:06;101406.88;;;12.21;100.00
24788;BME280;12883;52.662;5.196;2022-09-17T07:03:32;101416.28;;;12.17;100.00
24788;BME280;12883;52.662;5.196;2022-09-17T07:05:57;101411.66;;;12.04;100.00
24788;BME280;12883;52.662;5.196;2022-09-17T07:08:23;101404.88;;;12.02;100.00
24788;BME280;12883;52.662;5.196;2022-09-17T07:10:50;101402.22;;;12.02;100.00
24788;BME280;12883;52.662;5.196;2022-09-17T07:13:15;101406.00;;;12.14;100.00
24788;BME280;12883;52.662;5.196;2022-09-17T07:15:40;101395.78;;;12.11;100.00
24788;BME280;12883;52.662;5.196;2022-09-17T07:18:09;101403.44;;;12.27;100.00
24788;BME280;12883;52.662;5.196;2022-09-17T07:20:35;101400.00;;;12.33;100.00
24788;BME280;12883;52.662;5.196;2022-09-17T07:23:01;101407.28;;;12.52;100.00
24788;BME280;12883;52.662;5.196;2022-09-17T07:25:26;101426.19;;;12.70;100.00
24788;BME280;12883;52.662;5.196;2022-09-17T07:27:52;101409.41;;;12.76;100.00
24788;BME280;12883;52.662;5.196;2022-09-17T07:30:19;101412.09;;;12.76;100.00
24788;BME280;12883;52.662;5.196;2022-09-17T07:32:44;101394.00;;;12.65;100.00
24788;BME280;12883;52.662;5.196;2022-09-17T07:35:10;101419.84;;;12.71;100.00
24788;BME280;12883;52.662;5.196;2022-09-17T07:37:36;101415.16;;;12.73;100.00
24788;BME280;12883;52.662;5.196;2022-09-17T07:40:01;101411.28;;;12.82;100.00
24788;BME280;12883;52.662;5.196;2022-09-17T07:42:27;101411.91;;;12.84;100.00
24788;BME280;12883;52.662;5.196;2022-09-17T07:44:52;101411.72;;;12.92;100.00
24788;BME280;12883;52.662;5.196;2022-09-17T07:47:18;101402.97;;;12.98;100.00
24788;BME280;12883;52.662;5.196;2022-09-17T07:49:44;101413.03;;;13.02;100.00
24788;BME280;12883;52.662;5.196;2022-09-17T07:52:09;101409.38;;;13.10;100.00
24788;BME280;12883;52.662;5.196;2022-09-17T07:54:35;101410.22;;;13.17;100.00
24788;BME280;12883;52.662;5.196;2022-09-17T07:57:03;101406.13;;;13.21;100.00
24788;BME280;12883;52.662;5.196;2022-09-17T07:59:29;101405.94;;;13.35;100.00
24788;BME280;12883;52.662;5.196;2022-09-17T08:01:54;101405.78;;;13.50;100.00
24788;BME280;12883;52.662;5.196;2022-09-17T08:04:19;101401.47;;;13.55;100.00
24788;BME280;12883;52.662;5.196;2022-09-17T08:06:45;101406.59;;;13.70;100.00
24788;BME280;12883;52.662;5.196;2022-09-17T08:09:13;101405.16;;;13.80;100.00
24788;BME280;12883;52.662;5.196;2022-09-17T08:11:40;101404.34;;;13.80;100.00
24788;BME280;12883;52.662;5.196;2022-09-17T08:14:08;101416.84;;;13.73;100.00
24788;BME280;12883;52.662;5.196;2022-09-17T08:16:33;101404.97;;;13.69;100.00
24788;BME280;12883;52.662;5.196;2022-09-17T08:18:59;101416.47;;;13.76;100.00
24788;BME280;12883;52.662;5.196;2022-09-17T08:21:24;101398.81;;;13.68;100.00
24788;BME280;12883;52.662;5.196;2022-09-17T08:23:49;101392.63;;;13.81;100.00
24788;BME280;12883;52.662;5.196;2022-09-17T08:26:17;101414.00;;;14.20;100.00
24788;BME280;12883;52.662;5.196;2022-09-17T08:28:46;101415.41;;;14.16;100.00
24788;BME280;12883;52.662;5.196;2022-09-17T08:31:13;101433.66;;;14.12;100.00
24788;BME280;12883;52.662;5.196;2022-09-17T08:33:39;101432.44;;;14.02;100.00
24788;BME280;12883;52.662;5.196;2022-09-17T08:36:07;101423.84;;;14.00;100.00
24788;BME280;12883;52.662;5.196;2022-09-17T08:38:35;101418.06;;;14.03;100.00
24788;BME280;12883;52.662;5.196;2022-09-17T08:46:10;101397.78;;;14.21;100.00
24788;BME280;12883;52.662;5.196;2022-09-17T08:48:41;101420.94;;;14.47;100.00
24788;BME280;12883;52.662;5.196;2022-09-17T08:51:23;101413.91;;;14.52;100.00
24788;BME280;12883;52.662;5.196;2022-09-17T08:54:13;101415.16;;;14.50;100.00
24788;BME280;12883;52.662;5.196;2022-09-17T08:56:41;101421.28;;;14.57;100.00
24788;BME280;12883;52.662;5.196;2022-09-17T08:59:39;101424.38;;;14.60;100.00
24788;BME280;12883;52.662;5.196;2022-09-17T09:07:28;101418.47;;;14.95;100.00
24788;BME280;12883;52.662;5.196;2022-09-17T09:10:15;101441.00;;;14.69;100.00
24788;BME280;12883;52.662;5.196;2022-09-17T09:12:44;101431.03;;;14.19;100.00
24788;BME280;12883;52.662;5.196;2022-09-17T09:15:36;101430.41;;;13.78;100.00
24788;BME280;12883;52.662;5.196;2022-09-17T09:18:11;101431.19;;;13.59;100.00
24788;BME280;12883;52.662;5.196;2022-09-17T09:21:06;101427.50;;;13.53;100.00
24788;BME280;12883;52.662;5.196;2022-09-17T09:26:22;101422.41;;;13.78;100.00
24788;BME280;12883;52.662;5.196;2022-09-17T09:34:07;101419.31;;;13.94;100.00
24788;BME280;12883;52.662;5.196;2022-09-17T09:36:33;101422.59;;;13.96;100.00
24788;BME280;12883;52.662;5.196;2022-09-17T09:39:14;101431.63;;;13.95;100.00
24788;BME280;12883;52.662;5.196;2022-09-17T09:42:09;101426.50;;;14.13;100.00
24788;BME280;12883;52.662;5.196;2022-09-17T09:44:35;101418.88;;;14.10;100.00
24788;BME280;12883;52.662;5.196;2022-09-17T09:47:26;101418.50;;;14.26;100.00
24788;BME280;12883;52.662;5.196;2022-09-17T09:50:17;101418.84;;;14.49;100.00
24788;BME280;12883;52.662;5.196;2022-09-17T09:55:39;101429.88;;;14.78;100.00
24788;BME280;12883;52.662;5.196;2022-09-17T09:58:20;101431.50;;;14.79;100.00
24788;BME280;12883;52.662;5.196;2022-09-17T10:00:47;101427.09;;;15.04;100.00
24788;BME280;12883;52.662;5.196;2022-09-17T10:03:20;101429.75;;;15.04;100.00
24788;BME280;12883;52.662;5.196;2022-09-17T10:05:57;101437.38;;;15.00;100.00
24788;BME280;12883;52.662;5.196;2022-09-17T10:08:24;101440.34;;;14.80;100.00
24788;BME280;12883;52.662;5.196;2022-09-17T10:13:30;101436.75;;;14.98;100.00
24788;BME280;12883;52.662;5.196;2022-09-17T10:15:56;101441.66;;;15.08;100.00
24788;BME280;12883;52.662;5.196;2022-09-17T10:18:23;101418.50;;;15.26;100.00
24788;BME280;12883;52.662;5.196;2022-09-17T10:20:49;101433.47;;;15.40;100.00
24788;BME280;12883;52.662;5.196;2022-09-17T10:23:15;101434.13;;;15.36;100.00
24788;BME280;12883;52.662;5.196;2022-09-17T10:25:41;101443.19;;;15.35;100.00
24788;BME280;12883;52.662;5.196;2022-09-17T10:31:04;101446.34;;;15.56;100.00
24788;BME280;12883;52.662;5.196;2022-09-17T10:33:32;101444.66;;;15.62;100.00
24788;BME280;12883;52.662;5.196;2022-09-17T10:38:28;101461.66;;;15.43;100.00
24788;BME280;12883;52.662;5.196;2022-09-17T10:43:32;101461.44;;;15.00;100.00
24788;BME280;12883;52.662;5.196;2022-09-17T10:45:58;101458.97;;;14.92;100.00
24788;BME280;12883;52.662;5.196;2022-09-17T10:48:35;101461.44;;;14.94;100.00
24788;BME280;12883;52.662;5.196;2022-09-17T10:51:02;101454.50;;;14.87;100.00
24788;BME280;12883;52.662;5.196;2022-09-17T10:53:30;101417.97;;;14.68;100.00
24788;BME280;12883;52.662;5.196;2022-09-17T10:56:21;101452.91;;;14.73;100.00
24788;BME280;12883;52.662;5.196;2022-09-17T10:59:12;101430.13;;;14.51;100.00
24788;BME280;12883;52.662;5.196;2022-09-17T11:04:49;101447.03;;;15.01;100.00
24788;BME280;12883;52.662;5.196;2022-09-17T11:09:57;101473.34;;;15.04;100.00
24788;BME280;12883;52.662;5.196;2022-09-17T11:12:34;101463.13;;;14.82;100.00
24788;BME280;12883;52.662;5.196;2022-09-17T11:31:59;101443.78;;;14.93;100.00
24788;BME280;12883;52.662;5.196;2022-09-17T11:34:37;101435.13;;;14.97;100.00
24788;BME280;12883;52.662;5.196;2022-09-17T11:40:07;101454.88;;;15.40;100.00
24788;BME280;12883;52.662;5.196;2022-09-17T11:42:41;101478.28;;;15.51;100.00
24788;BME280;12883;52.662;5.196;2022-09-17T11:45:14;101465.50;;;15.09;100.00
24788;BME280;12883;52.662;5.196;2022-09-17T11:47:54;101466.00;;;14.87;100.00
24788;BME280;12883;52.662;5.196;2022-09-17T11:50:28;101465.19;;;14.87;100.00
24788;BME280;12883;52.662;5.196;2022-09-17T11:55:47;101448.81;;;14.64;100.00
24788;BME280;12883;52.662;5.196;2022-09-17T11:58:33;101408.56;;;14.52;100.00
24788;BME280;12883;52.662;5.196;2022-09-17T12:01:12;101442.59;;;14.82;100.00
24788;BME280;12883;52.662;5.196;2022-09-17T12:03:47;101451.19;;;14.91;100.00
24788;BME280;12883;52.662;5.196;2022-09-17T12:06:21;101447.44;;;14.98;100.00
24788;BME280;12883;52.662;5.196;2022-09-17T12:11:33;101436.50;;;15.06;100.00
24788;BME280;12883;52.662;5.196;2022-09-17T12:14:14;101443.47;;;15.14;100.00
24788;BME280;12883;52.662;5.196;2022-09-17T12:16:43;101438.06;;;15.27;100.00
24788;BME280;12883;52.662;5.196;2022-09-17T12:19:16;101432.47;;;15.41;100.00
24788;BME280;12883;52.662;5.196;2022-09-17T12:21:46;101422.22;;;15.63;100.00
24788;BME280;12883;52.662;5.196;2022-09-17T12:24:27;101450.53;;;15.46;100.00
24788;BME280;12883;52.662;5.196;2022-09-17T12:27:08;101453.41;;;15.44;100.00
24788;BME280;12883;52.662;5.196;2022-09-17T12:40:56;101454.38;;;15.56;100.00
24788;BME280;12883;52.662;5.196;2022-09-17T12:51:58;101459.13;;;16.10;100.00
24788;BME280;12883;52.662;5.196;2022-09-17T12:54:56;101465.94;;;16.06;100.00
24788;BME280;12883;52.662;5.196;2022-09-17T13:00:11;101454.94;;;16.14;100.00
24788;BME280;12883;52.662;5.196;2022-09-17T13:03:09;101463.44;;;16.11;100.00
24788;BME280;12883;52.662;5.196;2022-09-17T13:16:20;101477.84;;;15.85;100.00
24788;BME280;12883;52.662;5.196;2022-09-17T13:21:52;101471.59;;;15.29;100.00
24788;BME280;12883;52.662;5.196;2022-09-17T13:24:22;101477.56;;;15.25;100.00
24788;BME280;12883;52.662;5.196;2022-09-17T13:26:50;101469.56;;;15.25;100.00
24788;BME280;12883;52.662;5.196;2022-09-17T13:32:07;101466.25;;;15.29;100.00
24788;BME280;12883;52.662;5.196;2022-09-17T13:34:33;101472.66;;;15.59;100.00
24788;BME280;12883;52.662;5.196;2022-09-17T13:37:04;101453.16;;;15.83;100.00
24788;BME280;12883;52.662;5.196;2022-09-17T13:39:49;101443.06;;;15.85;100.00
24788;BME280;12883;52.662;5.196;2022-09-17T13:42:28;101457.38;;;15.97;100.00
24788;BME280;12883;52.662;5.196;2022-09-17T13:45:02;101462.38;;;16.12;100.00
24788;BME280;12883;52.662;5.196;2022-09-17T13:47:36;101477.56;;;16.18;100.00
24788;BME280;12883;52.662;5.196;2022-09-17T13:50:09;101494.59;;;16.05;100.00
24788;BME280;12883;52.662;5.196;2022-09-17T13:52:47;101491.38;;;15.66;100.00
24788;BME280;12883;52.662;5.196;2022-09-17T13:58:20;101491.84;;;14.99;100.00
24788;BME280;12883;52.662;5.196;2022-09-17T14:00:59;101477.56;;;14.75;100.00
24788;BME280;12883;52.662;5.196;2022-09-17T14:05:53;101476.56;;;14.63;100.00
24788;BME280;12883;52.662;5.196;2022-09-17T14:09:12;101468.72;;;14.74;100.00
24788;BME280;12883;52.662;5.196;2022-09-17T14:13:56;101467.94;;;14.54;100.00
24788;BME280;12883;52.662;5.196;2022-09-17T14:30:09;101476.16;;;15.22;100.00
24788;BME280;12883;52.662;5.196;2022-09-17T14:35:15;101481.53;;;15.09;100.00
24788;BME280;12883;52.662;5.196;2022-09-17T14:37:42;101477.00;;;15.16;100.00
24788;BME280;12883;52.662;5.196;2022-09-17T14:40:10;101462.13;;;15.27;100.00
24788;BME280;12883;52.662;5.196;2022-09-17T14:42:39;101475.31;;;15.22;100.00
24788;BME280;12883;52.662;5.196;2022-09-17T14:45:13;101472.63;;;15.28;100.00
24788;BME280;12883;52.662;5.196;2022-09-17T14:47:40;101474.47;;;15.34;100.00
24788;BME280;12883;52.662;5.196;2022-09-17T14:50:22;101476.91;;;15.42;100.00
24788;BME280;12883;52.662;5.196;2022-09-17T14:52:50;101469.91;;;15.41;100.00
24788;BME280;12883;52.662;5.196;2022-09-17T14:55:20;101460.84;;;15.42;100.00
24788;BME280;12883;52.662;5.196;2022-09-17T14:58:04;101469.41;;;15.51;100.00
24788;BME280;12883;52.662;5.196;2022-09-17T15:00:36;101468.63;;;15.50;100.00
24788;BME280;12883;52.662;5.196;2022-09-17T15:03:02;101454.38;;;15.56;100.00
24788;BME280;12883;52.662;5.196;2022-09-17T15:05:33;101455.09;;;15.70;100.00
24788;BME280;12883;52.662;5.196;2022-09-17T15:10:45;101450.13;;;15.73;100.00
24788;BME280;12883;52.662;5.196;2022-09-17T15:13:12;101446.47;;;15.68;100.00
24788;BME280;12883;52.662;5.196;2022-09-17T15:15:39;101454.69;;;15.73;100.00
24788;BME280;12883;52.662;5.196;2022-09-17T15:18:04;101465.94;;;15.81;100.00
24788;BME280;12883;52.662;5.196;2022-09-17T15:20:31;101458.53;;;15.83;100.00
24788;BME280;12883;52.662;5.196;2022-09-17T15:23:13;101471.63;;;15.91;100.00
24788;BME280;12883;52.662;5.196;2022-09-17T15:25:41;101467.81;;;15.74;100.00
24788;BME280;12883;52.662;5.196;2022-09-17T15:30:57;101494.97;;;15.78;100.00
24788;BME280;12883;52.662;5.196;2022-09-17T15:33:22;101477.75;;;15.67;100.00
24788;BME280;12883;52.662;5.196;2022-09-17T15:36:22;101493.59;;;15.69;100.00
24788;BME280;12883;52.662;5.196;2022-09-17T15:38:49;101490.81;;;15.51;100.00
24788;BME280;12883;52.662;5.196;2022-09-17T15:41:33;101488.47;;;15.23;100.00